CheckWX is a tool to help pilots better visualize weather data.  It is not intended as a substitute for an official pre-flight weather briefing.

15:11:18 UTC

CZSJ METAR
Sandy Lake Airport
Sandy Lake, Canada
Current

1 hour ago

CZSJ 201400Z AUTO VRB02KT 9SM CLR 08/04 A3018 RMK SLP232
Observed
May-20 @ 14:00 UTC
Wind
  • Variable at 2 KTS
Visibility
9 SM
Flight Rules
VFR
Cloud Levels
  • Clear skies
Temperature
C / 46°F
Dewpoint
C / 39°F
Humidity
76%
Altimeter
30.18" Hg
Pressure
1022.02 hPa
Previous

2 hours ago

CZSJ 201300Z AUTO VRB02KT 9SM CLR 06/03 A3017 RMK SLP230
Observed
May-20 @ 13:00 UTC
Wind
  • Variable at 2 KTS
Visibility
9 SM
Flight Rules
VFR
Cloud Levels
  • Clear skies
Temperature
C / 43°F
Dewpoint
C / 37°F
Humidity
81%
Altimeter
30.17" Hg
Pressure
1021.72 hPa
Previous

3 hours ago

CZSJ 201200Z AUTO 36004KT 9SM CLR 05/03 A3016 RMK SLP227
Observed
May-20 @ 12:00 UTC
Wind
  • 360° at 4 KTS
Visibility
9 SM
Flight Rules
VFR
Cloud Levels
  • Clear skies
Temperature
C / 41°F
Dewpoint
C / 37°F
Humidity
87%
Altimeter
30.16" Hg
Pressure
1021.32 hPa